createdAt,value
2022-08-01T00:00:13.807Z,16.48
2022-08-01T00:02:42.643Z,15.77
2022-08-01T00:05:11.674Z,16.00
2022-08-01T00:07:40.396Z,16.13
2022-08-01T00:10:11.315Z,16.05
2022-08-01T00:12:39.844Z,16.63
2022-08-01T00:15:09.832Z,15.65
2022-08-01T00:17:39.543Z,16.23
2022-08-01T00:20:10.090Z,16.90
2022-08-01T00:22:38.216Z,16.10
2022-08-01T00:25:08.251Z,16.10
2022-08-01T00:27:37.585Z,16.20
2022-08-01T00:30:13.133Z,16.20
2022-08-01T00:32:44.173Z,15.48
2022-08-01T00:35:12.601Z,15.80
2022-08-01T00:37:40.738Z,16.15
2022-08-01T00:40:10.078Z,15.63
2022-08-01T00:42:43.270Z,16.08
2022-08-01T00:45:12.572Z,16.42
2022-08-01T00:47:40.646Z,15.82
2022-08-01T00:50:11.497Z,15.88
2022-08-01T00:52:42.082Z,16.60
2022-08-01T00:55:13.753Z,16.17
2022-08-01T00:58:05.065Z,15.98
2022-08-01T01:00:32.937Z,15.40
2022-08-01T01:03:03.316Z,15.80
2022-08-01T01:05:38.154Z,16.20
2022-08-01T01:08:10.691Z,16.45
2022-08-01T01:10:45.064Z,16.50
2022-08-01T01:13:18.986Z,15.85
2022-08-01T01:15:49.808Z,15.75
2022-08-01T01:18:24.489Z,16.45
2022-08-01T01:20:59.094Z,14.48
2022-08-01T01:23:48.277Z,14.50
2022-08-01T01:26:41.220Z,15.27
2022-08-01T01:29:18.653Z,15.57
2022-08-01T01:31:50.621Z,14.90
2022-08-01T01:34:22.334Z,14.95
2022-08-01T01:36:53.650Z,15.60
2022-08-01T01:39:23.816Z,15.25
2022-08-01T01:41:53.443Z,14.38
2022-08-01T01:44:23.013Z,14.52
2022-08-01T01:46:53.596Z,15.05
2022-08-01T01:49:23.836Z,14.40
2022-08-01T01:52:02.951Z,13.75
2022-08-01T01:54:34.492Z,13.23
2022-08-01T01:57:05.381Z,12.80
2022-08-01T01:59:38.247Z,12.45
2022-08-01T02:02:08.707Z,11.88
2022-08-01T02:04:43.499Z,13.00
2022-08-01T02:07:14.402Z,12.82
2022-08-01T02:09:44.897Z,13.55
2022-08-01T02:12:14.463Z,12.60
2022-08-01T02:14:46.863Z,12.32
2022-08-01T02:17:18.471Z,13.43
2022-08-01T02:19:47.342Z,14.95
2022-08-01T02:22:22.259Z,13.02
2022-08-01T02:24:56.795Z,12.70
2022-08-01T02:27:30.703Z,13.15
2022-08-01T02:30:02.375Z,13.10
2022-08-01T02:32:34.083Z,13.32
2022-08-01T02:35:04.479Z,14.20
2022-08-01T02:37:36.108Z,13.60
2022-08-01T02:40:06.387Z,12.88
2022-08-01T02:42:38.927Z,13.10
2022-08-01T02:45:10.938Z,12.55
2022-08-01T02:47:42.101Z,12.45
2022-08-01T02:50:14.528Z,13.52
2022-08-01T02:52:43.793Z,12.90
2022-08-01T02:55:13.623Z,13.43
2022-08-01T02:57:51.469Z,11.70
2022-08-01T03:00:24.661Z,12.35
2022-08-01T03:02:55.948Z,12.70
2022-08-01T03:05:26.283Z,11.73
2022-08-01T03:07:57.159Z,11.88
2022-08-01T03:10:32.231Z,11.00
2022-08-01T03:13:02.351Z,12.00
2022-08-01T03:15:35.078Z,12.13
2022-08-01T03:18:04.900Z,12.00
2022-08-01T03:20:35.373Z,12.10
2022-08-01T03:23:07.368Z,11.80
2022-08-01T03:25:38.619Z,11.90
2022-08-01T03:28:08.475Z,12.07
2022-08-01T03:30:42.422Z,11.23
2022-08-01T03:33:14.437Z,11.82
2022-08-01T03:35:56.179Z,10.60
2022-08-01T03:38:27.632Z,10.48
2022-08-01T03:40:58.931Z,11.23
2022-08-01T03:43:33.030Z,11.13
2022-08-01T03:46:08.695Z,11.40
2022-08-01T03:48:42.862Z,11.43
2022-08-01T03:51:11.905Z,10.75
2022-08-01T03:53:44.741Z,10.65
2022-08-01T03:56:14.872Z,8.65
2022-08-01T03:58:44.739Z,8.27
2022-08-01T04:01:20.612Z,8.57
2022-08-01T04:03:49.132Z,7.45
2022-08-01T04:06:18.255Z,8.07
2022-08-01T04:08:56.452Z,7.60
2022-08-01T04:11:26.661Z,6.45
2022-08-01T04:13:55.584Z,7.45
2022-08-01T04:16:25.424Z,7.00
2022-08-01T04:18:53.983Z,7.05
2022-08-01T04:21:25.967Z,8.30
2022-08-01T04:23:58.111Z,8.77
2022-08-01T04:26:27.870Z,8.45
2022-08-01T04:28:57.795Z,10.10
2022-08-01T04:31:29.326Z,9.40
2022-08-01T04:34:00.572Z,10.10
2022-08-01T04:36:30.846Z,9.50
2022-08-01T04:39:03.359Z,9.40
2022-08-01T04:41:32.909Z,8.38
2022-08-01T04:44:01.617Z,8.32
2022-08-01T04:46:31.994Z,8.88
2022-08-01T04:49:01.545Z,8.98
2022-08-01T04:51:29.850Z,9.82
2022-08-01T04:53:58.823Z,9.90
2022-08-01T04:56:26.816Z,9.60
2022-08-01T04:59:08.949Z,9.68
2022-08-01T05:01:38.532Z,10.00
2022-08-01T05:04:06.889Z,10.90
2022-08-01T05:06:34.974Z,10.68
2022-08-01T05:09:03.110Z,11.05
2022-08-01T05:11:31.758Z,12.65
2022-08-01T05:13:59.914Z,12.20
2022-08-01T05:16:27.978Z,11.07
2022-08-01T05:18:57.952Z,12.57
2022-08-01T05:21:26.062Z,12.85
2022-08-01T05:23:54.253Z,14.00
2022-08-01T05:26:22.330Z,14.55
2022-08-01T05:28:50.392Z,13.77
2022-08-01T05:31:18.513Z,14.90
2022-08-01T05:33:46.606Z,15.48
2022-08-01T05:36:16.102Z,15.82
2022-08-01T05:38:44.205Z,12.73
2022-08-01T05:41:12.673Z,11.95
2022-08-01T05:43:40.768Z,11.30
2022-08-01T05:46:09.025Z,10.13
2022-08-01T05:48:37.107Z,9.52
2022-08-01T05:51:05.439Z,9.75
2022-08-01T05:53:35.526Z,10.38
2022-08-01T05:56:03.923Z,9.35
2022-08-01T05:58:32.842Z,10.38
2022-08-01T06:01:01.170Z,11.35
2022-08-01T06:03:32.243Z,12.15
2022-08-01T06:06:00.464Z,11.80
2022-08-01T06:08:29.087Z,11.93
2022-08-01T06:10:58.979Z,12.75
2022-08-01T06:13:27.245Z,10.25
2022-08-01T06:15:55.390Z,13.38
2022-08-01T06:18:23.506Z,13.65
2022-08-01T06:20:51.601Z,14.15
2022-08-01T06:23:32.516Z,14.82
2022-08-01T06:26:02.537Z,16.80
2022-08-01T06:28:30.676Z,15.27
2022-08-01T06:31:00.417Z,16.90
2022-08-01T06:33:29.292Z,15.55
2022-08-01T06:35:57.507Z,23.15
2022-08-01T06:38:26.020Z,22.55
2022-08-01T06:40:54.086Z,32.42
2022-08-01T06:43:23.630Z,28.80
2022-08-01T06:45:51.770Z,28.02
2022-08-01T06:48:19.846Z,29.20
2022-08-01T06:50:47.966Z,32.28
2022-08-01T06:53:16.083Z,30.23
2022-08-01T06:55:44.193Z,36.22
2022-08-01T06:58:12.251Z,23.67
2022-08-01T07:00:43.362Z,46.60
2022-08-01T07:03:11.537Z,48.22
2022-08-01T07:05:39.598Z,43.40
2022-08-01T07:08:07.748Z,53.80
2022-08-01T07:10:35.930Z,50.45
2022-08-01T07:13:04.027Z,57.55
2022-08-01T07:15:32.391Z,44.95
2022-08-01T07:18:04.718Z,52.20
2022-08-01T07:20:37.648Z,49.50
2022-08-01T07:23:09.441Z,53.97
2022-08-01T07:25:41.091Z,53.63
2022-08-01T07:28:18.753Z,54.00
2022-08-01T07:30:46.826Z,45.67
2022-08-01T07:33:16.370Z,43.58
2022-08-01T07:35:44.560Z,46.47
2022-08-01T07:38:12.982Z,47.67
2022-08-01T07:40:41.125Z,48.83
2022-08-01T07:43:09.256Z,54.80
2022-08-01T07:45:37.546Z,48.17
2022-08-01T07:48:09.030Z,54.20
2022-08-01T07:50:38.990Z,51.97
2022-08-01T07:53:07.269Z,52.33
2022-08-01T07:55:35.496Z,53.45
2022-08-01T07:58:03.667Z,51.65
2022-08-01T08:00:31.946Z,48.30
2022-08-01T08:03:00.562Z,47.10
2022-08-01T08:05:51.636Z,48.80
2022-08-01T08:08:19.218Z,54.17
2022-08-01T08:10:50.163Z,48.88
2022-08-01T08:13:18.810Z,51.80
2022-08-01T08:15:49.158Z,51.70
2022-08-01T08:18:17.379Z,50.60
2022-08-01T08:20:46.139Z,49.53
2022-08-01T08:23:42.909Z,54.25
2022-08-01T08:26:13.947Z,54.85
2022-08-01T08:28:42.019Z,51.25
2022-08-01T08:31:25.202Z,53.78
2022-08-01T08:33:58.731Z,54.60
2022-08-01T08:36:31.171Z,52.58
2022-08-01T08:39:01.478Z,54.47
2022-08-01T08:41:37.003Z,54.78
2022-08-01T08:44:09.925Z,53.90
2022-08-01T08:46:44.920Z,55.92
2022-08-01T08:49:19.689Z,54.03
2022-08-01T08:51:50.656Z,55.25
2022-08-01T08:54:29.529Z,59.72
2022-08-01T08:57:02.414Z,55.22
2022-08-01T08:59:31.029Z,58.45
2022-08-01T09:01:59.173Z,52.67
2022-08-01T09:04:28.647Z,49.33
2022-08-01T09:06:56.947Z,52.38
2022-08-01T09:09:25.591Z,56.47
2022-08-01T09:11:57.079Z,53.35
2022-08-01T09:14:31.418Z,51.35
2022-08-01T09:17:04.681Z,52.05
2022-08-01T09:19:41.876Z,53.65
2022-08-01T09:22:12.838Z,52.55
2022-08-01T09:24:42.049Z,52.33
2022-08-01T09:27:21.943Z,56.17
2022-08-01T09:30:00.737Z,54.63
2022-08-01T09:32:36.131Z,51.95
2022-08-01T09:35:29.989Z,52.03
2022-08-01T09:38:19.031Z,53.17
2022-08-01T09:40:49.537Z,53.03
2022-08-01T09:43:19.077Z,51.97
2022-08-01T09:45:50.604Z,56.55
2022-08-01T09:48:22.816Z,56.58
2022-08-01T09:51:04.368Z,54.30
2022-08-01T09:53:52.385Z,55.67
2022-08-01T09:56:23.323Z,56.70
2022-08-01T09:58:59.226Z,59.83
2022-08-01T10:01:36.614Z,60.70
2022-08-01T10:04:09.631Z,59.88
2022-08-01T10:06:38.602Z,59.80
2022-08-01T10:09:09.000Z,62.15
2022-08-01T10:11:40.212Z,59.47
2022-08-01T10:14:09.732Z,61.38
2022-08-01T10:16:40.269Z,60.28
2022-08-01T10:19:14.628Z,63.33
2022-08-01T10:21:58.593Z,53.95
2022-08-01T10:24:30.195Z,52.90
2022-08-01T10:27:05.862Z,55.25
2022-08-01T10:29:46.413Z,55.13
2022-08-01T10:32:29.509Z,55.65
2022-08-01T10:34:58.458Z,52.50
2022-08-01T10:37:27.319Z,55.33
2022-08-01T10:40:27.215Z,56.22
2022-08-01T10:42:45.550Z,54.55
2022-08-01T10:45:18.964Z,55.72
2022-08-01T10:47:55.612Z,56.30
2022-08-01T10:50:29.817Z,53.95
2022-08-01T10:53:15.897Z,56.15
2022-08-01T10:55:55.213Z,58.72
2022-08-01T10:58:27.583Z,67.07
2022-08-01T11:01:18.343Z,57.45
2022-08-01T11:04:04.167Z,49.17
2022-08-01T11:06:50.812Z,51.17
2022-08-01T11:09:37.102Z,51.88
2022-08-01T11:12:13.384Z,51.55
2022-08-01T11:15:29.710Z,52.20
2022-08-01T11:18:00.353Z,55.20
2022-08-01T11:20:32.501Z,56.97
2022-08-01T11:23:35.894Z,52.75
2022-08-01T11:26:29.116Z,56.05
2022-08-01T11:29:22.660Z,54.58
2022-08-01T11:31:52.844Z,52.83
2022-08-01T11:34:21.692Z,54.78
2022-08-01T11:36:59.668Z,51.95
2022-08-01T11:39:29.548Z,52.83
2022-08-01T11:42:18.027Z,51.95
2022-08-01T11:44:52.323Z,60.35
2022-08-01T11:47:21.399Z,50.28
2022-08-01T11:49:56.233Z,52.45
2022-08-01T11:52:30.900Z,50.38
2022-08-01T11:55:10.228Z,52.67
2022-08-01T11:57:39.532Z,49.78
2022-08-01T12:00:15.274Z,57.03
2022-08-01T12:02:46.779Z,55.22
2022-08-01T12:05:18.471Z,58.20
2022-08-01T12:07:52.664Z,58.38
2022-08-01T12:10:22.115Z,57.75
2022-08-01T12:12:51.635Z,59.17
2022-08-01T12:15:20.797Z,60.72
2022-08-01T12:17:58.186Z,60.17
2022-08-01T12:20:30.733Z,56.28
2022-08-01T12:23:03.020Z,62.72
2022-08-01T12:25:31.506Z,57.70
2022-08-01T12:28:03.143Z,57.58
2022-08-01T12:30:32.772Z,57.15
2022-08-01T12:33:01.133Z,58.60
2022-08-01T12:35:31.607Z,55.78
2022-08-01T12:38:02.483Z,57.95
2022-08-01T12:40:32.454Z,52.78
2022-08-01T12:43:03.292Z,52.10
2022-08-01T12:45:35.154Z,50.53
2022-08-01T12:48:04.101Z,54.75
2022-08-01T12:50:34.195Z,58.20
2022-08-01T12:53:04.639Z,55.13
2022-08-01T12:55:38.237Z,57.85
2022-08-01T12:58:26.075Z,61.22
2022-08-01T13:01:06.141Z,57.08
2022-08-01T13:03:34.436Z,56.08
2022-08-01T13:06:02.809Z,54.40
2022-08-01T13:08:38.947Z,56.17
2022-08-01T13:11:10.018Z,48.70
2022-08-01T13:13:40.982Z,71.35
2022-08-01T13:16:12.310Z,48.25
2022-08-01T13:18:51.524Z,58.20
2022-08-01T13:21:21.262Z,50.00
2022-08-01T13:24:08.112Z,51.47
2022-08-01T13:26:42.976Z,49.83
2022-08-01T13:29:13.780Z,49.17
2022-08-01T13:31:42.709Z,47.75
2022-08-01T13:34:11.055Z,51.10
2022-08-01T13:36:41.237Z,51.65
2022-08-01T13:39:30.285Z,43.20
2022-08-01T13:42:07.447Z,46.50
2022-08-01T13:44:35.798Z,47.95
2022-08-01T13:47:14.911Z,53.63
2022-08-01T13:49:44.350Z,52.58
2022-08-01T13:52:12.656Z,55.40
2022-08-01T13:54:42.350Z,53.40
2022-08-01T13:57:10.557Z,48.63
2022-08-01T13:59:38.763Z,49.47
2022-08-01T14:02:07.280Z,46.88
2022-08-01T14:04:35.617Z,44.17
2022-08-01T14:07:09.630Z,49.92
2022-08-01T14:09:57.631Z,48.65
2022-08-01T14:12:29.914Z,48.00
2022-08-01T14:14:58.125Z,51.88
2022-08-01T14:17:26.171Z,44.45
2022-08-01T14:19:57.534Z,51.38
2022-08-01T14:22:25.686Z,47.60
2022-08-01T14:24:59.509Z,48.75
2022-08-01T14:27:31.835Z,48.22
2022-08-01T14:30:02.761Z,46.60
2022-08-01T14:32:34.209Z,53.05
2022-08-01T14:35:02.656Z,52.33
2022-08-01T14:37:34.715Z,50.63
2022-08-01T14:40:10.326Z,49.03
2022-08-01T14:42:39.268Z,54.53
2022-08-01T14:45:09.814Z,53.08
2022-08-01T14:47:38.730Z,49.47
2022-08-01T14:50:09.629Z,50.47
2022-08-01T14:52:39.084Z,44.58
2022-08-01T14:55:10.803Z,48.10
2022-08-01T14:57:39.999Z,45.58
2022-08-01T15:00:11.540Z,45.88
2022-08-01T15:02:39.829Z,46.45
2022-08-01T15:05:09.483Z,50.00
2022-08-01T15:07:52.132Z,52.83
2022-08-01T15:10:24.016Z,57.08
2022-08-01T15:12:52.111Z,58.40
2022-08-01T15:15:20.945Z,62.25
2022-08-01T15:17:49.049Z,57.65
2022-08-01T15:20:17.211Z,56.63
2022-08-01T15:22:45.354Z,53.33
2022-08-01T15:25:13.731Z,55.42
2022-08-01T15:27:43.282Z,54.15
2022-08-01T15:30:11.960Z,54.42
2022-08-01T15:32:40.367Z,181.50
2022-08-01T15:35:11.169Z,58.60
2022-08-01T15:37:42.825Z,56.38
2022-08-01T15:40:13.078Z,56.55
2022-08-01T15:42:42.632Z,107.03
2022-08-01T15:45:25.636Z,57.63
2022-08-01T15:47:59.686Z,60.85
2022-08-01T15:50:27.723Z,57.92
2022-08-01T15:52:55.831Z,58.92
2022-08-01T15:55:24.005Z,60.35
2022-08-01T15:57:53.458Z,59.10
2022-08-01T16:00:21.583Z,59.85
2022-08-01T16:02:49.712Z,58.70
2022-08-01T16:05:20.383Z,56.17
2022-08-01T16:07:59.551Z,65.50
2022-08-01T16:10:32.290Z,57.50
2022-08-01T16:13:06.828Z,60.10
2022-08-01T16:15:36.650Z,60.80
2022-08-01T16:18:05.486Z,62.28
2022-08-01T16:20:33.932Z,62.97
2022-08-01T16:23:02.176Z,60.55
2022-08-01T16:25:30.445Z,62.13
2022-08-01T16:27:58.535Z,63.13
2022-08-01T16:30:28.162Z,63.45
2022-08-01T16:33:03.924Z,61.30
2022-08-01T16:35:36.388Z,63.40
2022-08-01T16:38:04.900Z,64.55
2022-08-01T16:40:46.380Z,62.58
2022-08-01T16:43:15.453Z,60.78
2022-08-01T16:45:45.190Z,60.78
2022-08-01T16:48:15.379Z,62.53
2022-08-01T16:50:43.507Z,62.35
2022-08-01T16:53:13.113Z,61.92
2022-08-01T16:55:50.234Z,61.47
2022-08-01T16:58:27.126Z,62.97
2022-08-01T17:01:58.717Z,15.43
2022-08-01T17:03:53.798Z,14.50
2022-08-01T17:06:23.887Z,15.25
2022-08-01T17:08:52.067Z,14.95
2022-08-01T17:11:20.262Z,14.98
2022-08-01T17:13:48.924Z,15.25
2022-08-01T17:16:18.460Z,18.40
2022-08-01T17:18:46.721Z,16.75
2022-08-01T17:21:14.901Z,16.00
2022-08-01T17:23:43.118Z,16.92
2022-08-01T17:26:11.591Z,17.80
2022-08-01T17:28:39.743Z,16.85
2022-08-01T17:31:09.371Z,15.93
2022-08-01T17:33:44.561Z,16.35
2022-08-01T17:36:15.268Z,16.15
2022-08-01T17:38:43.435Z,16.23
2022-08-01T17:41:11.735Z,16.70
2022-08-01T17:43:39.955Z,16.73
2022-08-01T17:46:08.200Z,16.55
2022-08-01T17:48:36.286Z,16.50
2022-08-01T17:51:06.506Z,17.90
2022-08-01T17:53:34.968Z,16.50
2022-08-01T17:56:05.838Z,16.65
2022-08-01T17:58:51.890Z,16.20
2022-08-01T18:01:21.443Z,16.65
2022-08-01T18:03:49.970Z,16.20
2022-08-01T18:06:23.476Z,16.17
2022-08-01T18:08:55.212Z,15.82
2022-08-01T18:11:27.144Z,16.80
2022-08-01T18:13:56.398Z,16.15
2022-08-01T18:16:24.671Z,16.38
2022-08-01T18:18:52.801Z,16.88
2022-08-01T18:21:22.238Z,17.20
2022-08-01T18:23:51.366Z,18.40
2022-08-01T18:26:20.553Z,18.50
2022-08-01T18:28:48.626Z,18.58
2022-08-01T18:31:19.841Z,17.65
2022-08-01T18:33:48.089Z,17.50
2022-08-01T18:36:32.940Z,17.80
2022-08-01T18:39:06.362Z,17.50
2022-08-01T18:41:39.742Z,17.77
2022-08-01T18:44:09.316Z,17.48
2022-08-01T18:46:38.399Z,18.35
2022-08-01T18:49:07.308Z,18.45
2022-08-01T18:51:37.897Z,18.23
2022-08-01T18:54:09.915Z,17.67
2022-08-01T18:56:37.983Z,17.58
2022-08-01T18:59:06.050Z,18.80
2022-08-01T19:01:34.211Z,16.92
2022-08-01T19:04:02.583Z,17.98
2022-08-01T19:06:30.836Z,18.00
2022-08-01T19:09:02.423Z,17.80
2022-08-01T19:11:33.123Z,17.85
2022-08-01T19:14:02.398Z,18.40
2022-08-01T19:16:31.025Z,18.65
2022-08-01T19:18:59.419Z,17.65
2022-08-01T19:21:27.778Z,17.48
2022-08-01T19:24:13.584Z,16.98
2022-08-01T19:26:48.008Z,18.13
2022-08-01T19:29:19.857Z,17.10
2022-08-01T19:31:49.417Z,16.70
2022-08-01T19:34:18.749Z,17.83
2022-08-01T19:36:50.552Z,17.50
2022-08-01T19:39:23.531Z,17.40
2022-08-01T19:41:54.024Z,18.17
2022-08-01T19:44:24.558Z,17.80
2022-08-01T19:46:53.472Z,17.85
2022-08-01T19:49:23.052Z,18.10
2022-08-01T19:51:53.027Z,18.60
2022-08-01T19:54:22.771Z,18.73
2022-08-01T19:56:54.993Z,18.35
2022-08-01T19:59:24.776Z,17.95
2022-08-01T20:01:54.408Z,16.83
2022-08-01T20:04:23.059Z,18.08
2022-08-01T20:06:51.166Z,17.27
2022-08-01T20:09:19.264Z,16.92
2022-08-01T20:11:50.183Z,17.40
2022-08-01T20:14:22.320Z,17.50
2022-08-01T20:16:53.557Z,17.23
2022-08-01T20:19:24.431Z,17.20
2022-08-01T20:22:02.639Z,17.55
2022-08-01T20:24:41.890Z,17.50
2022-08-01T20:27:13.483Z,17.67
2022-08-01T20:29:45.380Z,17.30
2022-08-01T20:32:14.082Z,17.60
2022-08-01T20:34:42.544Z,17.67
2022-08-01T20:37:12.827Z,17.50
2022-08-01T20:39:45.339Z,16.80
2022-08-01T20:42:13.921Z,16.55
2022-08-01T20:44:45.362Z,16.73
